INFORMACIÓN METAR y TAF
METAR FOR LELN
ADDS - METARS form results

(1709 UTC 30 October 2020)
Data provider http://aviationweather.gov/metar/data/
 
METAR text: LELN 301700Z 04002KT 9999 FEW020 13/09 Q1026
Conditions at: LELN (LEON/VIRGEN CAMI, ES) observed 1700 UTC 30 October 2020
Temperature: 13.0°C (55°F)
Dewpoint: 9.0°C (48°F) [RH = 77%]
Pressure (altimeter): 30.30 inches Hg (1026.0 mb)
Winds: from the NE (40 degrees) at 2 MPH (2 knots; 1.0 m/s)
Visibility: 6 or more miles (10+ km)
Ceiling: at least 12,000 feet AGL
Clouds: few clouds at 2000 feet AGL
Weather: no significant weather observed at this time

METAR text: LELN 301630Z 07003KT 050V110 9999 FEW018 14/09 Q1026
Conditions at: LELN (LEON/VIRGEN CAMI, ES) observed 1630 UTC 30 October 2020
Temperature: 14.0°C (57°F)
Dewpoint: 9.0°C (48°F) [RH = 72%]
Pressure (altimeter): 30.30 inches Hg (1026.0 mb)
Winds: from the ENE (70 degrees) at 3 MPH (3 knots; 1.5 m/s)
Visibility: 6 or more miles (10+ km)
Ceiling: at least 12,000 feet AGL
Clouds: few clouds at 1800 feet AGL
Weather: no significant weather observed at this time

Forecast for: LELN (LEON/VIRGEN CAMI, ES)
Text: TAF LELN 301400Z 3015/3115 VRB04KT 9999 BKN020 TX15/3015Z TN05/3106Z
Forecast period: 1500 UTC 30 October 2020 to 1500 UTC 31 October 2020
Forecast type: FROM: standard forecast or significant change
Winds: variable direction winds at 5 MPH (4 knots; 2.1 m/s)
Visibility: 6 or more miles (10+ km)
Ceiling: 2000 feet AGL
Clouds: broken clouds at 2000 feet AGL
Weather: no significant weather forecast for this period
Text: TEMPO 3103/3109 0200 BCFG FG VV002
Forecast period: 0300 to 0900 UTC 31 October 2020
Forecast type: TEMPORARY: The following changes expected for less than half the time period
Visibility: 0.12 miles (0.19 km)
Ceiling: indefinite ceiling with vertical visibility of 200 feet AGL
Clouds: obscured sky
Weather: BCFG FG  (patches of fog, fog)

 MAPA DE AEROPUERTO

 INFORMACIÓN DE PISTA
Pista 05 Longitud 6890 ft Ancho 148 ft
Elevación 2994 ft Umbral desplazado 0 ft Rumbo de pista 45
Pista 23 Longitud 6890 ft Ancho 148 ft
Elevación 3001 ft Umbral desplazado 0 ft Rumbo de pista 225
Pista 06 Longitud 3609 ft Ancho 328 ft
Elevación 3034 ft Umbral desplazado 0 ft Rumbo de pista 60
Pista 24 Longitud 3609 ft Ancho 328 ft
Elevación 3000 ft Umbral desplazado 0 ft Rumbo de pista 240

 FRECUANCIAS DEL AEROPUERTO
Tipo APP Nombre APP Frecuencia 122.1 MHZ
Tipo TWR Nombre TWR Frecuencia 122.1 MHZ

 RADIO AYUDAS DEL AEROPUERTO
Tipo VOR-DME Nombre Leon Frecuencia 112000 KHZ
Tipo NDB Nombre Leon Frecuencia 330 KHZ



Powered by Virtual Airlines Manager [v2.6.2]